Flight Track Log - Related Links

Times and Time Zones

All times are in EDT time to prevent confusion due to time zone crossing. See the N135AJ flight status page for this flight to view local times or setup timezone preferences in your user account.

Time Position Orientation Groundspeed Altitude Reporting Facility
EDT Latitude Longitude Course Direction KTS MPH feet Rate Location/Type
Fri 11:36:42 AM 18.4500 -65.9667 317° Northwest 220 253 1,200  Level San Juan Center
Fri 11:37:42 AM 18.5167 -66.0000 335° Northwest 230 265 3,800 2,550 Climbing San Juan Center
Fri 11:38:42 AM 18.5667 -66.0667 308° West 290 334 6,300 2,678 Climbing San Juan Center
Fri 11:39:43 AM 18.6167 -66.1333 308° West 320 368 9,200 2,628 Climbing San Juan Center
Fri 11:40:43 AM 18.6667 -66.2000 308° West 330 380 11,600 2,500 Climbing San Juan Center
Fri 11:41:43 AM 18.7333 -66.2667 317° Northwest 330 380 14,200 2,430 Climbing San Juan Center
Fri 11:42:00 AM 18.9028 -66.4528 317° Northwest  Level FlightAware Approximate
Fri 11:42:44 AM 18.8000 -66.3333 317° Northwest 340 391 16,500  Level San Juan Center
Fri 11:43:44 AM 18.8667 -66.4167 310° West 350 403 18,700 2,050 Climbing San Juan Center
Fri 11:44:44 AM 18.9333 -66.5000 310° West 360 414 20,600 1,850 Climbing San Juan Center
Fri 11:45:44 AM 19.0000 -66.5833 310° West 370 426 22,400 1,884 Climbing San Juan Center
Fri 11:46:45 AM 19.0667 -66.6833 305° West 380 437 24,400 1,736 Climbing San Juan Center
Fri 11:47:45 AM 19.1333 -66.7500 317° Northwest 380 437 25,900 1,500 Climbing San Juan Center
Fri 11:48:45 AM 19.2167 -66.8500 311° West 400 460 27,400 1,250 Climbing San Juan Center
Fri 11:49:45 AM 19.2833 -66.9333 310° West 400 460 28,400 1,041 Climbing San Juan Center
Fri 11:50:46 AM 19.3500 -67.0167 310° West 410 472 29,500 1,091 Climbing San Juan Center
Fri 11:51:46 AM 19.4167 -67.1167 305° West 410 472 30,600 1,200 Climbing San Juan Center
Fri 11:52:46 AM 19.5000 -67.2000 317° Northwest 410 472 31,900 1,289 Climbing San Juan Center
Fri 11:53:47 AM 19.5667 -67.2833 310° West 370 426 33,200 1,289 Climbing San Juan Center
Fri 11:54:47 AM 19.6500 -67.3833 312° West 400 460 34,500 1,000 Climbing San Juan Center
Fri 11:55:47 AM 19.7167 -67.4500 317° Northwest 370 426 35,200 843 Climbing San Juan Center
Fri 11:56:48 AM 19.7667 -67.5500 298° West 370 426 36,200 843 Climbing San Juan Center
Fri 11:57:48 AM 19.8333 -67.6333 310° West 390 449 36,900 800 Climbing San Juan Center
Fri 11:58:48 AM 19.9000 -67.7167 310° West 370 426 37,800 744 Climbing San Juan Center
Fri 11:59:49 AM 19.9667 -67.8000 310° West 370 426 38,400 496 Climbing San Juan Center
Fri 12:00:49 PM 20.0333 -67.8833 310° West 360 414 38,800 483 Climbing San Juan Center
Fri 12:02:18 PM 20.1397 -68.0114 312° West 383 441 39,600 443 Climbing Miami Center
Fri 12:03:18 PM 20.2067 -68.0908 312° West 383 441 39,900 200 Climbing Miami Center
Fri 12:04:18 PM 20.2719 -68.1769 309° West 378 435 40,000 50 Climbing Miami Center
Fri 12:05:18 PM 20.3369 -68.2633 309° West 378 435 40,000  Level Miami Center
Fri 12:06:18 PM 20.4061 -68.3494 311° West 378 435 40,000  Level Miami Center
Fri 12:07:18 PM 20.4736 -68.4425 308° West 383 441 40,000  Level Miami Center
Fri 12:08:18 PM 20.5533 -68.5306 314° West 395 455 40,000  Level Miami Center
Fri 12:09:18 PM 20.5986 -68.6383 294° West 395 455 40,000  Level Miami Center
Fri 12:10:18 PM 20.6500 -68.7458 297° West 406 467 40,000  Level Miami Center
Fri 12:11:18 PM 20.7119 -68.8528 302° West 411 473 40,000  Level Miami Center
Fri 12:12:18 PM 20.7675 -68.9625 298° West 416 479 40,000  Level Miami Center
Fri 12:13:18 PM 20.8208 -69.0700 298° West 421 484 40,000  Level Miami Center
Fri 12:14:18 PM 20.8783 -69.1775 300° West 421 484 40,000  Level Miami Center
Fri 12:15:18 PM 20.9242 -69.2592 301° West 415 478 40,000  Level Miami Center
Fri 12:16:18 PM 20.9844 -69.3889 296° West 409 471 40,000  Level Miami Center
Fri 12:17:18 PM 21.0436 -69.4922 302° West 409 471 40,000  Level Miami Center
Fri 12:18:18 PM 21.0964 -69.5958 299° West 402 463 40,000  Level Miami Center
Fri 12:19:18 PM 21.1536 -69.7039 300° West 402 463 40,000  Level Miami Center
Fri 12:20:18 PM 21.2064 -69.8100 298° West 407 468 40,000  Level Miami Center
Fri 12:21:18 PM 21.2614 -69.9161 299° West 402 463 40,000  Level Miami Center
Fri 12:22:18 PM 21.3181 -70.0197 300° West 402 463 40,000  Level Miami Center
Fri 12:23:18 PM 21.3708 -70.1261 298° West 402 463 40,000  Level Miami Center
Fri 12:24:18 PM 21.4253 -70.2325 299° West 407 468 40,000  Level Miami Center
Fri 12:25:18 PM 21.4800 -70.3389 299° West 407 468 40,000  Level Miami Center
Fri 12:26:18 PM 21.5364 -70.4431 300° West 407 468 40,000  Level Miami Center
Fri 12:27:18 PM 21.5889 -70.5522 297° West 402 463 40,000  Level Miami Center
Fri 12:28:18 PM 21.6456 -70.6586 300° West 402 463 40,000  Level Miami Center
Fri 12:29:18 PM 21.7000 -70.7700 298° West 409 471 40,000  Level Miami Center
Fri 12:30:18 PM 21.7542 -70.8747 299° West 409 471 40,000  Level Miami Center
Fri 12:31:18 PM 21.8106 -70.9861 299° West 409 471 40,000  Level Miami Center
Fri 12:32:18 PM 21.8714 -71.1042 299° West 409 471 40,000  Level Miami Center
Fri 12:33:18 PM 21.9189 -71.2028 297° West 409 471 40,000  Level Miami Center
Fri 12:34:18 PM 21.9819 -71.3231 299° West 414 476 40,000  Level Miami Center
Fri 12:35:18 PM 22.0378 -71.4303 299° West 414 476 40,000  Level Miami Center
Fri 12:36:18 PM 22.0897 -71.5400 297° West 414 476 40,000  Level Miami Center
Fri 12:37:18 PM 22.1456 -71.6475 299° West 414 476 40,000  Level Miami Center
Fri 12:38:18 PM 22.1994 -71.7575 298° West 414 476 40,000  Level Miami Center
Fri 12:39:18 PM 22.2531 -71.8653 298° West 414 476 40,000  Level Miami Center
Fri 12:40:18 PM 22.3089 -71.9753 299° West 414 476 40,000  Level Miami Center
Fri 12:41:18 PM 22.3644 -72.0856 299° West 414 476 40,000  Level Miami Center
Fri 12:42:18 PM 22.4158 -72.1936 297° West 414 476 40,000  Level Miami Center
Fri 12:43:18 PM 22.4714 -72.3039 299° West 419 482 40,000  Level Miami Center
Fri 12:44:30 PM 22.5289 -72.4142 299° West 419 482 40,000  Level Miami Center
Fri 12:45:30 PM 22.5914 -72.5469 297° West 419 482 40,000  Level Miami Center
Fri 12:46:30 PM 22.6486 -72.6575 299° West 419 482 40,000  Level Miami Center
Fri 12:47:30 PM 22.6953 -72.7572 297° West 419 482 40,000  Level Miami Center
Fri 12:48:30 PM 22.7483 -72.8681 297° West 419 482 40,000  Level Miami Center
Fri 12:49:30 PM 22.8036 -72.9814 298° West 419 482 40,000  Level Miami Center
Fri 12:50:30 PM 22.8564 -73.0925 297° West 419 482 40,000  Level Miami Center
Fri 12:51:30 PM 22.9133 -73.1989 300° West 419 482 40,000  Level Miami Center
Fri 12:52:30 PM 22.9683 -73.3147 297° West 419 482 40,000  Level Miami Center
Fri 12:53:30 PM 23.0211 -73.4239 298° West 419 482 40,000  Level Miami Center
Fri 12:54:30 PM 23.0628 -73.5131 297° West 419 482 40,000  Level Miami Center
Fri 12:55:30 PM 23.1283 -73.6467 298° West 419 482 40,000  Level Miami Center
Fri 12:56:30 PM 23.1831 -73.7606 298° West 419 482 40,000  Level Miami Center
Fri 12:57:30 PM 23.2375 -73.8722 298° West 419 482 40,000  Level Miami Center
Fri 12:58:30 PM 23.2919 -73.9842 298° West 424 488 40,000  Level Miami Center
Fri 12:59:30 PM 23.3506 -74.1072 297° West 424 488 40,000  Level Miami Center
Fri 01:00:30 PM 23.4047 -74.2192 298° West 418 481 40,000  Level Miami Center
Fri 01:01:30 PM 23.4589 -74.3314 298° West 418 481 40,000  Level Miami Center
Fri 01:02:30 PM 23.5131 -74.4436 298° West 418 481 40,000  Level Miami Center
Fri 01:03:30 PM 23.5628 -74.5558 296° West 418 481 40,000  Level Miami Center
Fri 01:04:30 PM 23.6189 -74.6683 299° West 418 481 40,000  Level Miami Center
Fri 01:05:30 PM 23.6914 -74.7667 309° West 418 481 40,000  Level Miami Center
Fri 01:06:30 PM 23.7636 -74.8633 309° West 412 474 40,000  Level Miami Center
Fri 01:07:30 PM 23.8339 -74.9644 307° West 417 480 40,000  Level Miami Center
Fri 01:08:30 PM 23.9064 -75.0633 309° West 417 480 40,000  Level Miami Center
Fri 01:09:30 PM 23.9764 -75.1647 307° West 417 480 40,000  Level Miami Center
Fri 01:10:30 PM 24.0486 -75.2636 309° West 417 480 40,000  Level Miami Center
Fri 01:11:30 PM 24.1186 -75.3631 308° West 417 480 40,000  Level Miami Center
Fri 01:12:30 PM 24.1886 -75.4647 307° West 417 480 40,000  Level Miami Center
Fri 01:13:30 PM 24.2583 -75.5619 308° West 417 480 40,000  Level Miami Center
Fri 01:14:30 PM 24.3281 -75.6614 308° West 417 480 40,000  Level Miami Center
Fri 01:15:30 PM 24.4000 -75.7611 308° West 417 480 40,000  Level Miami Center
Fri 01:16:30 PM 24.4697 -75.8656 306° West 417 480 40,000  Level Miami Center
Fri 01:17:30 PM 24.5394 -75.9656 307° West 417 480 40,000  Level Miami Center
Fri 01:18:30 PM 24.6089 -76.0633 308° West 417 480 40,000  Level Miami Center
Fri 01:19:30 PM 24.6783 -76.1614 308° West 417 480 40,000  Level Miami Center
Fri 01:20:30 PM 24.7478 -76.2614 307° West 411 473 40,000  Level Miami Center
Fri 01:21:30 PM 24.8169 -76.3619 307° West 411 473 40,000  Level Miami Center
Fri 01:22:30 PM 24.8864 -76.4625 307° West 416 479 40,000  Level Miami Center
Fri 01:23:30 PM 24.9556 -76.5631 307° West 416 479 40,000  Level Miami Center
Fri 01:24:30 PM 25.0267 -76.6639 308° West 416 479 40,000  Level Miami Center
Fri 01:25:30 PM 25.0958 -76.7647 307° West 416 479 40,000  Level Miami Center
Fri 01:26:30 PM 25.1628 -76.8633 307° West 416 479 40,000  Level Miami Center
Fri 01:27:30 PM 25.2339 -76.9667 307° West 416 479 40,000  Level Miami Center
Fri 01:28:30 PM 25.3047 -77.0703 307° West 416 479 40,000 -50 Level Miami Center
Fri 01:29:30 PM 25.3756 -77.1717 308° West 416 479 39,900 -50 Descending Miami Center
Fri 01:30:30 PM 25.4464 -77.2775 307° West 416 479 39,900 50 Level Miami Center
Fri 01:31:30 PM 25.5150 -77.3814 306° West 421 484 40,000 50 Climbing Miami Center
Fri 01:32:30 PM 25.5733 -77.4647 308° West 426 490 40,000 50 Level Miami Center
Fri 01:33:30 PM 25.6481 -77.5781 306° West 426 490 40,100 100 Climbing Miami Center
Fri 01:34:30 PM 25.7206 -77.6844 307° West 426 490 40,200 -50 Climbing Miami Center
Fri 01:35:30 PM 25.7931 -77.7867 308° West 432 497 40,000 -100 Descending Miami Center
Fri 01:36:30 PM 25.8614 -77.8933 305° West 432 497 40,000  Level Miami Center
Fri 01:37:30 PM 25.9294 -77.9981 306° West 427 491 40,000  Level Miami Center
Fri 01:38:30 PM 25.9997 -78.1003 307° West 427 491 40,000  Level Miami Center
Fri 01:39:30 PM 26.0678 -78.2075 305° West 432 497 40,000  Level Miami Center
Fri 01:40:30 PM 26.1400 -78.3078 309° West 432 497 40,000  Level Miami Center
Fri 01:41:30 PM 26.2056 -78.4197 303° West 427 491 40,000  Level Miami Center
Fri 01:42:30 PM 26.2733 -78.5250 306° West 427 491 40,000  Level Miami Center
Fri 01:43:30 PM 26.3453 -78.6256 309° West 427 491 40,000  Level Miami Center
Fri 01:44:30 PM 26.4194 -78.7289 309° West 427 491 40,000  Level Miami Center
Fri 01:45:30 PM 26.4828 -78.8342 304° West 422 486 40,000  Level Miami Center
Fri 01:46:30 PM 26.5586 -78.9422 308° West 422 486 40,000  Level Miami Center
Fri 01:47:30 PM 26.6281 -79.0481 306° West 428 493 40,000 -550 Level Miami Center
Fri 01:48:30 PM 26.6911 -79.1469 306° West 423 487 38,900 -1,950 Descending Miami Center
Fri 01:49:30 PM 26.7606 -79.2531 306° West 423 487 36,100 -2,850 Descending Miami Center
Fri 01:50:30 PM 26.8378 -79.3711 306° West 432 497 33,200 -2,450 Descending Miami Center
Fri 01:51:30 PM 26.9069 -79.4797 306° West 432 497 31,200 -2,400 Descending Miami Center
Fri 01:52:30 PM 26.9719 -79.5792 306° West 432 497 28,400 -2,150 Descending Miami Center
Fri 01:53:30 PM 27.0431 -79.6856 307° West 432 497 26,900 -700 Descending Miami Center
Fri 01:54:30 PM 27.1181 -79.8042 305° West 432 497 27,000 50 Climbing Miami Center
Fri 01:55:30 PM 27.1825 -79.9156 303° West 432 497 27,000 -50 Level Miami Center
Fri 01:56:30 PM 27.2553 -80.0250 307° West 432 497 26,900 -800 Descending Miami Center
Fri 01:57:30 PM 27.3219 -80.1319 305° West 432 497 25,400 -2,000 Descending Miami Center
Fri 01:58:30 PM 27.3883 -80.2344 306° West 427 491 22,900 -2,500 Descending Miami Center
Fri 01:59:30 PM 27.4508 -80.3322 306° West 416 479 20,400 -2,200 Descending Miami Center
Fri 02:00:30 PM 27.5111 -80.4275 306° West 392 451 18,500 -1,750 Descending Miami Center
Fri 02:01:30 PM 27.5614 -80.5019 307° West 348 400 16,900 -1,850 Descending Miami Center
Fri 02:02:30 PM 27.6136 -80.5808 307° West 329 379 14,800 -2,400 Descending Miami Center
Fri 02:03:30 PM 27.6658 -80.6669 304° West 310 357 12,100 -2,050 Descending Miami Center
Fri 02:04:30 PM 27.7139 -80.7436 305° West 305 351 10,700 -1,500 Descending Miami Center
Fri 02:05:30 PM 27.7597 -80.8203 304° West 300 345 9,100 -1,300 Descending Miami Center
Fri 02:06:30 PM 27.8058 -80.8897 307° West 293 337 8,100 -351 Descending Miami Center
Fri 02:08:21 PM 27.8833 -81.0167 305° West 273 314 8,100  Level Orlando TRACON
Fri 02:09:21 PM 27.9333 -81.0833 310° West 272 313 8,100  Level Orlando TRACON
Fri 02:10:21 PM 27.9833 -81.1500 310° West 271 312 8,100  Level Orlando TRACON
Fri 02:11:21 PM 28.0500 -81.1833 336° Northwest 275 316 8,100 -250 Level Orlando TRACON
Fri 02:12:21 PM 28.0667 -81.2667 283° West 272 313 7,600 -1,160 Descending Orlando TRACON
Fri 02:14:22 PM 28.1000 -81.4167 284° West 240 276 4,600 -1,193 Descending Orlando TRACON
Fri 02:15:22 PM 28.1333 -81.4667 307° West 212 244 4,000 -800 Descending Orlando TRACON
Fri 02:16:22 PM 28.2000 -81.4833 348° North 209 241 3,000 -496 Descending Orlando TRACON
Fri 02:17:23 PM 28.2500 -81.5000 344° North 222 255 3,000 -446 Level Orlando TRACON
Fri 02:18:23 PM 28.3167 -81.5167 348° North 229 264 2,100 -450 Descending Orlando TRACON
Fri 02:19:23 PM 28.3833 -81.5167 360° North 207 238 2,100  Level Orlando TRACON
Fri 02:20:23 PM 28.4333 -81.5167 360° North 195 224 2,100 -50 Level Orlando TRACON
Fri 02:21:23 PM 28.4833 -81.4833 30° Northeast 190 219 2,000 -50 Descending Orlando TRACON
Fri 02:22:23 PM 28.5000 -81.4333 69° East 162 186 2,000  Level Orlando TRACON

Login

Don't have an account? Register now (free) for customized features, flight alerts, and more!